Horgen, Switzerland
Current Conditions -  °F | °C
As of 9:50 PM on Friday 31 Oct 2014 (Local Time) from LSZH Reporting Station
Light Fog Light Fog  
Wind Chill: 45°   Ceiling: Unl
Heat Index: 45°   Visibility: 4mi
Dew Point: 43°   Wind: 1mph
Humidity: 93%   Direction: 290°WNW
Pressure: 30.27"   Gusts: NA
Location:  47.27°N, 8.6°E
Report Text: LSZH 312050Z 29001KT 6000 MIFG NSC 07/06 Q1025 NOSIG
Loading
Personal Weather Stations






























Interactive Weather Map
Tropical Storm Tracking
New forecast layout! Learn more

10-Day Weather Forecast

Advertisements
Track Severe Weather on mobile